Time;durP1;ratioP1;P1;durP2;ratioP2;P2;SDS_P1;SDS_P2;PMS_P1;PMS_P2;Temp;Humidity;BMP_temperature;BMP_pressure;BME280_temperature;BME280_humidity;BME280_pressure;Samples;Min_cycle;Max_cycle;Signal;HPM_P1;HPM_P2
2021/11/11 00:02:17;;;;;;;53.55;36.67;;;9.40;99.90;;;;;;5112192;28;20066;-72
2021/11/11 00:04:43;;;;;;;52.90;36.00;;;9.40;99.90;;;;;;5094580;28;20058;-72
2021/11/11 00:07:08;;;;;;;51.63;37.00;;;9.40;99.90;;;;;;5104915;28;20661;-72
2021/11/11 00:09:35;;;;;;;52.58;36.55;;;9.40;99.90;;;;;;5120061;28;20555;-73
2021/11/11 00:12:02;;;;;;;47.92;34.53;;;9.40;99.90;;;;;;5111244;28;20051;-72
2021/11/11 00:14:27;;;;;;;52.78;38.35;;;9.40;99.90;;;;;;5123525;28;20042;-72
2021/11/11 00:16:53;;;;;;;60.85;39.28;;;9.40;99.90;;;;;;5091790;28;20489;-72
2021/11/11 00:19:19;;;;;;;50.33;38.40;;;9.30;99.90;;;;;;5108665;28;20047;-72
2021/11/11 00:21:45;;;;;;;56.15;37.15;;;9.40;99.90;;;;;;5095008;28;20043;-72
2021/11/11 00:24:11;;;;;;;54.13;36.40;;;9.40;99.90;;;;;;5083512;28;20054;-72
2021/11/11 00:26:37;;;;;;;52.72;39.00;;;9.40;99.90;;;;;;5125850;27;20083;-73
2021/11/11 00:29:04;;;;;;;63.38;41.08;;;9.40;99.90;;;;;;5075316;28;20263;-72
2021/11/11 00:31:29;;;;;;;50.53;37.10;;;9.40;99.90;;;;;;5115651;28;20091;-73
2021/11/11 00:33:55;;;;;;;55.50;39.15;;;9.30;99.90;;;;;;5109225;27;20050;-72
2021/11/11 00:36:21;;;;;;;56.67;37.83;;;9.40;99.90;;;;;;5107266;28;20050;-72
2021/11/11 00:38:47;;;;;;;54.92;39.42;;;9.40;99.90;;;;;;5143241;27;20047;-72
2021/11/11 00:41:14;;;;;;;58.45;38.53;;;9.40;99.90;;;;;;5126207;27;20039;-72
2021/11/11 00:43:41;;;;;;;56.78;38.50;;;9.30;99.90;;;;;;5112296;27;20506;-72
2021/11/11 00:46:07;;;;;;;51.83;34.97;;;9.30;99.90;;;;;;5130491;27;20077;-72
2021/11/11 00:48:36;;;;;;;53.25;38.05;;;9.30;99.90;;;;;;5112631;27;20157;-73
2021/11/11 00:51:02;;;;;;;53.95;36.97;;;9.40;99.90;;;;;;5112101;27;20524;-72
2021/11/11 00:53:27;;;;;;;49.78;34.85;;;9.40;99.90;;;;;;5094152;27;20050;-72
2021/11/11 00:55:53;;;;;;;53.00;37.28;;;9.30;99.90;;;;;;5109765;27;20039;-72
2021/11/11 00:58:19;;;;;;;54.25;38.38;;;9.40;99.90;;;;;;5094036;27;20047;-72
2021/11/11 01:00:45;;;;;;;54.63;35.50;;;9.40;99.90;;;;;;5092170;27;20039;-73
2021/11/11 01:03:13;;;;;;;54.08;36.22;;;9.30;99.90;;;;;;5087520;28;20056;-72
2021/11/11 01:05:39;;;;;;;54.78;37.00;;;9.40;99.90;;;;;;5103528;28;20043;-72
2021/11/11 01:08:06;;;;;;;54.05;36.95;;;9.30;99.90;;;;;;5071838;28;20502;-72
2021/11/11 01:10:33;;;;;;;52.50;36.83;;;9.40;99.90;;;;;;5090825;28;20083;-72
2021/11/11 01:12:59;;;;;;;54.85;35.83;;;9.40;99.90;;;;;;5106634;28;20111;-73
2021/11/11 01:15:31;;;;;;;48.45;34.53;;;9.40;99.90;;;;;;5107636;28;20131;-72
2021/11/11 01:17:59;;;;;;;53.17;35.20;;;9.40;99.90;;;;;;5106340;28;20058;-72
2021/11/11 01:20:25;;;;;;;53.42;35.75;;;9.40;99.90;;;;;;5107961;28;20051;-72
2021/11/11 01:22:54;;;;;;;49.60;34.40;;;9.40;99.90;;;;;;5107429;28;20089;-72
2021/11/11 01:25:23;;;;;;;56.10;37.33;;;9.40;99.90;;;;;;5090324;28;20058;-73
2021/11/11 01:27:50;;;;;;;49.67;36.65;;;9.30;99.90;;;;;;5107763;28;20100;-72
2021/11/11 01:30:16;;;;;;;48.25;33.85;;;9.40;99.90;;;;;;5105531;28;21039;-72
2021/11/11 01:32:42;;;;;;;51.92;33.85;;;9.30;99.90;;;;;;5108690;28;20122;-73
2021/11/11 01:35:09;;;;;;;49.22;34.10;;;9.30;99.90;;;;;;5085471;28;20082;-72
2021/11/11 01:37:37;;;;;;;54.33;35.90;;;9.30;99.90;;;;;;5090052;28;20126;-72
2021/11/11 01:40:04;;;;;;;53.72;34.72;;;9.30;99.90;;;;;;5107327;28;20674;-72
2021/11/11 01:42:44;;;;;;;46.78;32.83;;;9.30;99.90;;;;;;5106791;28;20039;-72
2021/11/11 01:45:10;;;;;;;53.47;36.27;;;9.30;99.90;;;;;;5106133;28;20052;-72
2021/11/11 01:47:36;;;;;;;46.35;33.25;;;9.30;99.90;;;;;;5106774;28;20368;-72
2021/11/11 01:50:04;;;;;;;51.70;35.63;;;9.30;99.90;;;;;;5105836;28;20181;-73
2021/11/11 01:52:30;;;;;;;52.15;35.95;;;9.30;99.90;;;;;;5089234;28;20557;-72
2021/11/11 01:54:56;;;;;;;49.15;34.92;;;9.40;99.90;;;;;;5067090;28;20072;-72
2021/11/11 01:57:23;;;;;;;49.65;35.53;;;9.30;99.90;;;;;;5089127;28;20044;-71
2021/11/11 01:59:49;;;;;;;49.53;35.30;;;9.30;99.90;;;;;;5105748;28;20101;-71
2021/11/11 02:02:24;;;;;;;51.30;34.58;;;9.30;99.90;;;;;;5088565;28;20074;-71
2021/11/11 02:04:50;;;;;;;52.35;35.58;;;9.30;99.90;;;;;;5083021;28;20070;-71
2021/11/11 02:07:16;;;;;;;48.20;34.42;;;9.20;99.90;;;;;;5084996;28;20567;-71
2021/11/11 02:09:42;;;;;;;51.08;35.97;;;9.30;99.90;;;;;;5101011;28;20096;-72
2021/11/11 02:12:09;;;;;;;49.15;35.28;;;9.30;99.90;;;;;;5063992;28;20078;-72
2021/11/11 02:14:35;;;;;;;50.15;35.50;;;9.30;99.90;;;;;;5074994;28;20636;-71
2021/11/11 02:17:01;;;;;;;48.83;35.38;;;9.30;99.90;;;;;;5071043;28;20043;-72
2021/11/11 02:19:26;;;;;;;52.90;34.47;;;9.30;99.90;;;;;;5092699;28;20081;-72
2021/11/11 02:21:54;;;;;;;52.63;37.28;;;9.30;99.90;;;;;;5105049;28;20076;-72
2021/11/11 02:24:20;;;;;;;53.47;36.17;;;9.30;99.90;;;;;;5078952;28;20044;-72
2021/11/11 02:26:46;;;;;;;55.53;38.25;;;9.30;99.90;;;;;;5086689;28;20085;-72
2021/11/11 02:29:12;;;;;;;57.65;38.88;;;9.30;99.90;;;;;;5089955;28;20040;-72
2021/11/11 02:31:38;;;;;;;56.15;38.22;;;9.30;99.90;;;;;;5062251;28;20054;-72
2021/11/11 02:34:03;;;;;;;52.33;38.15;;;9.30;99.90;;;;;;5078151;28;20066;-72
2021/11/11 02:36:29;;;;;;;61.08;40.45;;;9.30;99.90;;;;;;5076377;28;20441;-69
2021/11/11 02:38:57;;;;;;;58.17;40.90;;;9.30;99.90;;;;;;5072068;28;20044;-71
2021/11/11 02:41:24;;;;;;;60.42;40.42;;;9.30;99.90;;;;;;5082669;28;20133;-71
2021/11/11 02:43:50;;;;;;;60.85;40.53;;;9.30;99.90;;;;;;5090157;28;20052;-71
2021/11/11 02:46:16;;;;;;;61.40;42.03;;;9.30;99.90;;;;;;5068838;28;20052;-73
2021/11/11 02:48:42;;;;;;;63.22;43.45;;;9.30;99.90;;;;;;5076521;28;20036;-72
2021/11/11 02:51:09;;;;;;;63.42;43.70;;;9.30;99.90;;;;;;5048755;28;20101;-72
2021/11/11 02:53:39;;;;;;;49.35;37.42;;;9.30;99.90;;;;;;5067674;28;20048;-72
2021/11/11 02:56:04;;;;;;;70.03;45.40;;;9.30;99.90;;;;;;5099387;28;20050;-72
2021/11/11 02:58:30;;;;;;;64.80;44.35;;;9.30;99.90;;;;;;5085544;28;20039;-71
2021/11/11 03:01:03;;;;;;;63.05;45.28;;;9.30;99.90;;;;;;5085741;27;20104;-72
2021/11/11 03:03:30;;;;;;;57.58;39.85;;;9.20;99.90;;;;;;5106610;27;20184;-72
2021/11/11 03:05:56;;;;;;;61.90;45.17;;;9.30;99.90;;;;;;5088646;27;20043;-72
2021/11/11 03:08:23;;;;;;;63.53;47.35;;;9.30;99.90;;;;;;5106837;27;20047;-72
2021/11/11 03:10:49;;;;;;;59.78;45.25;;;9.30;99.90;;;;;;5108474;27;20039;-72
2021/11/11 03:13:17;;;;;;;66.72;48.38;;;9.30;99.90;;;;;;5105230;27;20054;-71
2021/11/11 03:15:43;;;;;;;71.22;52.67;;;9.30;99.90;;;;;;5074365;27;20131;-72
2021/11/11 03:18:11;;;;;;;71.38;51.00;;;9.30;99.90;;;;;;5126444;27;20089;-71
2021/11/11 03:20:37;;;;;;;66.97;51.25;;;9.30;99.90;;;;;;5108098;27;20122;-71
2021/11/11 03:23:04;;;;;;;71.55;53.35;;;9.30;99.90;;;;;;5089715;28;20180;-71
2021/11/11 03:25:32;;;;;;;78.00;56.65;;;9.40;99.90;;;;;;5108237;27;20068;-71
2021/11/11 03:27:59;;;;;;;77.63;55.78;;;9.40;99.90;;;;;;5091115;28;20044;-72
2021/11/11 03:30:27;;;;;;;76.30;56.95;;;9.40;99.90;;;;;;5091424;27;20047;-72
2021/11/11 03:32:54;;;;;;;81.43;61.85;;;9.40;99.90;;;;;;5090236;27;20054;-72
2021/11/11 03:35:20;;;;;;;77.35;57.75;;;9.40;99.90;;;;;;5105797;28;20051;-72
2021/11/11 03:37:47;;;;;;;81.28;59.38;;;9.40;99.90;;;;;;5091111;28;20055;-72
2021/11/11 03:40:17;;;;;;;90.78;64.25;;;9.40;99.90;;;;;;5107647;27;20122;-72
2021/11/11 03:42:46;;;;;;;;;;;9.40;99.90;;;;;;5108105;28;20084;-72
2021/11/11 03:45:13;;;;;;;93.70;73.07;;;9.40;99.90;;;;;;5107017;28;20540;-72
2021/11/11 03:47:39;;;;;;;95.20;76.22;;;9.40;99.90;;;;;;5107653;28;20044;-72
2021/11/11 03:50:06;;;;;;;95.40;75.57;;;9.40;99.90;;;;;;5106775;28;20062;-72
2021/11/11 03:52:32;;;;;;;93.45;72.35;;;9.30;99.90;;;;;;5090286;28;20131;-72
2021/11/11 03:55:01;;;;;;;92.20;73.20;;;9.40;99.90;;;;;;5125866;28;20118;-72
2021/11/11 03:57:27;;;;;;;97.15;74.18;;;9.30;99.90;;;;;;5091169;28;20043;-72
2021/11/11 03:59:56;;;;;;;87.32;72.78;;;9.30;99.90;;;;;;5107457;28;20444;-73
2021/11/11 04:02:23;;;;;;;90.55;73.78;;;9.40;99.90;;;;;;5105231;28;20055;-73
2021/11/11 04:04:50;;;;;;;97.97;79.63;;;9.30;99.90;;;;;;5090236;28;20395;-74
2021/11/11 04:07:16;;;;;;;102.68;79.45;;;9.30;99.90;;;;;;5124980;28;20122;-74
2021/11/11 04:09:42;;;;;;;101.20;78.97;;;9.30;99.90;;;;;;5105800;28;20086;-73
2021/11/11 04:12:08;;;;;;;105.78;82.40;;;9.30;99.90;;;;;;5107030;28;20565;-73
2021/11/11 04:14:34;;;;;;;111.13;83.07;;;9.30;99.90;;;;;;5107493;28;20673;-73
2021/11/11 04:17:00;;;;;;;120.95;88.88;;;9.30;99.90;;;;;;5091868;27;20072;-73
2021/11/11 04:19:26;;;;;;;115.03;85.70;;;9.30;99.90;;;;;;5077371;27;20143;-72
2021/11/11 04:21:52;;;;;;;118.28;92.50;;;9.20;99.90;;;;;;5077627;27;20070;-72
2021/11/11 04:24:18;;;;;;;136.32;98.78;;;9.20;99.90;;;;;;5094161;27;20134;-72
2021/11/11 04:27:30;;;;;;;128.35;94.00;;;9.20;99.90;;;;;;5111319;27;20039;-71
2021/11/11 04:29:35;;;;;;;113.75;90.05;;;9.20;99.90;;;;;;5090622;27;20564;-72
2021/11/11 04:32:03;;;;;;;146.25;105.68;;;9.20;99.90;;;;;;5094330;27;20074;-71
2021/11/11 04:34:35;;;;;;;136.80;102.03;;;9.20;99.90;;;;;;5111187;27;20748;-71
2021/11/11 04:42:26;;;;;;;155.02;106.13;;;9.20;99.90;;;;;;5110635;27;20043;-72
2021/11/11 05:03:43;;;;;;;174.30;112.20;;;9.20;99.90;;;;;;5110070;28;20086;-72
2021/11/11 05:06:10;;;;;;;190.60;115.30;;;9.10;99.90;;;;;;5107388;28;20047;-71
2021/11/11 05:08:36;;;;;;;185.75;115.38;;;9.10;99.90;;;;;;5100676;27;20706;-72
2021/11/11 05:11:02;;;;;;;147.25;101.10;;;9.10;99.90;;;;;;5146715;27;20154;-71
2021/11/11 05:13:29;;;;;;;168.18;106.28;;;9.10;99.90;;;;;;5077945;27;20046;-71
2021/11/11 05:15:56;;;;;;;158.48;103.18;;;9.20;99.90;;;;;;5078589;27;20047;-71
2021/11/11 05:18:22;;;;;;;127.90;92.47;;;9.20;99.90;;;;;;5094909;27;20895;-72
2021/11/11 05:20:49;;;;;;;142.75;93.93;;;9.10;99.90;;;;;;5112692;27;20035;-74
2021/11/11 05:23:15;;;;;;;162.73;97.05;;;9.20;99.90;;;;;;5110128;27;20075;-73
2021/11/11 05:25:42;;;;;;;126.82;86.28;;;9.20;99.90;;;;;;5111977;27;20795;-73
2021/11/11 05:28:08;;;;;;;150.77;89.22;;;9.20;99.90;;;;;;5075816;28;20052;-71
2021/11/11 05:30:34;;;;;;;152.88;89.75;;;9.20;99.90;;;;;;5091389;28;20130;-71
2021/11/11 05:33:00;;;;;;;155.52;92.25;;;9.20;99.90;;;;;;5091481;28;20123;-71
2021/11/11 05:35:27;;;;;;;178.80;93.78;;;9.10;99.90;;;;;;5091594;27;20513;-71
2021/11/11 05:37:54;;;;;;;121.47;80.88;;;9.10;99.90;;;;;;5094122;27;20054;-72
2021/11/11 05:40:20;;;;;;;149.35;89.63;;;9.10;99.90;;;;;;5092529;27;20078;-71
2021/11/11 05:42:47;;;;;;;144.45;86.15;;;9.20;99.90;;;;;;5108058;27;20526;-72
2021/11/11 05:45:17;;;;;;;110.75;77.93;;;9.20;99.90;;;;;;5090431;28;20035;-72
2021/11/11 05:47:44;;;;;;;133.23;87.75;;;9.20;99.90;;;;;;5091040;28;20498;-72
2021/11/11 05:50:12;;;;;;;115.97;78.88;;;9.20;99.90;;;;;;5101460;27;20050;-73
2021/11/11 05:52:38;;;;;;;151.82;88.72;;;9.10;99.90;;;;;;5111584;27;20047;-72
2021/11/11 05:55:06;;;;;;;132.27;85.07;;;9.10;99.90;;;;;;5111466;27;20101;-72
2021/11/11 05:57:32;;;;;;;149.95;86.88;;;9.10;99.90;;;;;;5106501;27;20059;-72
2021/11/11 06:00:01;;;;;;;140.20;83.72;;;9.20;99.90;;;;;;5073173;27;20035;-71
2021/11/11 06:02:27;;;;;;;155.70;88.75;;;9.20;99.90;;;;;;5099749;27;20530;-70
2021/11/11 06:04:53;;;;;;;163.23;92.25;;;9.20;99.90;;;;;;5099548;27;20066;-71
2021/11/11 06:07:19;;;;;;;142.00;84.72;;;9.20;99.90;;;;;;5088781;27;20063;-71
2021/11/11 06:09:45;;;;;;;156.25;89.60;;;9.20;99.90;;;;;;5109740;27;20051;-71
2021/11/11 06:12:11;;;;;;;134.25;84.20;;;9.20;99.90;;;;;;5108517;27;20042;-71
2021/11/11 06:14:37;;;;;;;147.52;86.35;;;9.20;99.90;;;;;;5074477;27;20290;-72
2021/11/11 06:17:06;;;;;;;143.68;85.38;;;9.20;99.90;;;;;;5091549;27;20039;-71
2021/11/11 06:19:37;;;;;;;163.25;93.35;;;9.30;99.90;;;;;;5092519;27;20108;-70
2021/11/11 06:22:04;;;;;;;151.05;90.25;;;9.20;99.90;;;;;;5092068;27;20050;-71
2021/11/11 06:24:30;;;;;;;177.32;96.40;;;9.20;99.90;;;;;;5091835;27;20054;-69
2021/11/11 06:26:57;;;;;;;167.88;93.80;;;9.30;99.90;;;;;;5092124;27;20447;-71
2021/11/11 06:29:23;;;;;;;142.35;87.47;;;9.30;99.90;;;;;;5091725;27;20417;-71
2021/11/11 06:31:49;;;;;;;155.20;92.70;;;9.30;99.90;;;;;;5108294;27;20043;-71
2021/11/11 06:34:15;;;;;;;149.73;92.35;;;9.30;99.90;;;;;;5080575;27;20366;-71
2021/11/11 06:36:40;;;;;;;160.90;94.63;;;9.30;99.90;;;;;;5085354;27;20067;-71
2021/11/11 06:39:07;;;;;;;154.52;92.75;;;9.30;99.90;;;;;;5105077;27;20094;-71
2021/11/11 06:41:33;;;;;;;131.25;79.68;;;9.30;99.90;;;;;;5072929;27;20071;-71
2021/11/11 06:44:02;;;;;;;131.50;81.03;;;9.30;99.90;;;;;;5085790;27;20074;-71
2021/11/11 06:46:31;;;;;;;152.70;85.22;;;9.30;99.90;;;;;;5105052;27;20108;-71
2021/11/11 06:48:57;;;;;;;162.13;89.72;;;9.30;99.90;;;;;;5121596;27;20103;-71
2021/11/11 06:51:26;;;;;;;152.35;83.60;;;9.40;99.90;;;;;;5104200;27;20079;-71
2021/11/11 06:53:52;;;;;;;154.25;85.15;;;9.40;99.90;;;;;;5088987;27;20416;-71
2021/11/11 06:56:17;;;;;;;160.70;86.82;;;9.40;99.90;;;;;;5074833;27;20035;-70
2021/11/11 06:58:43;;;;;;;156.13;85.97;;;9.40;99.90;;;;;;5089046;27;20163;-71
2021/11/11 07:01:09;;;;;;;116.65;76.45;;;9.40;99.90;;;;;;5088052;27;20495;-72
2021/11/11 07:03:35;;;;;;;149.32;83.10;;;9.40;99.90;;;;;;5107008;27;20055;-70
2021/11/11 07:06:01;;;;;;;134.68;81.07;;;9.40;99.90;;;;;;5104696;27;20051;-71
2021/11/11 07:08:27;;;;;;;137.43;84.70;;;9.40;99.90;;;;;;5089678;27;20042;-70
2021/11/11 07:10:54;;;;;;;135.00;80.85;;;9.40;99.90;;;;;;5103872;27;20137;-71
2021/11/11 07:13:22;;;;;;;137.02;82.40;;;9.40;99.90;;;;;;5107194;27;20080;-71
2021/11/11 07:15:48;;;;;;;143.60;83.75;;;9.40;99.90;;;;;;5090828;27;20746;-70
2021/11/11 07:18:14;;;;;;;115.47;76.13;;;9.40;99.90;;;;;;5107669;27;20043;-70
2021/11/11 07:20:46;;;;;;;121.13;78.65;;;9.40;99.90;;;;;;5090882;27;20039;-71
2021/11/11 07:23:14;;;;;;;120.90;79.32;;;9.40;99.90;;;;;;5101980;27;20058;-69
2021/11/11 07:25:41;;;;;;;127.07;80.88;;;9.40;99.90;;;;;;5085406;27;20059;-70
2021/11/11 07:28:07;;;;;;;122.10;81.72;;;9.40;99.90;;;;;;5097761;27;20111;-71
2021/11/11 07:30:33;;;;;;;143.75;85.00;;;9.40;99.90;;;;;;5089601;27;20126;-71
2021/11/11 07:32:59;;;;;;;132.88;83.07;;;9.40;99.90;;;;;;5119506;27;20074;-71
2021/11/11 07:35:25;;;;;;;119.43;79.93;;;9.40;99.90;;;;;;5080781;27;20039;-70
2021/11/11 07:37:52;;;;;;;113.28;78.30;;;9.50;99.90;;;;;;5128517;27;20406;-71
2021/11/11 07:40:21;;;;;;;131.07;82.57;;;9.40;99.90;;;;;;5065152;27;20027;-70
2021/11/11 07:42:48;;;;;;;127.30;85.32;;;9.50;99.90;;;;;;5043660;28;20055;-70
2021/11/11 07:45:17;;;;;;;130.35;83.85;;;9.50;99.90;;;;;;5042927;28;20074;-71
2021/11/11 07:47:43;;;;;;;133.63;87.50;;;9.50;99.90;;;;;;5054519;28;20057;-70
2021/11/11 07:50:10;;;;;;;128.73;85.25;;;9.50;99.90;;;;;;5059136;28;20052;-70
2021/11/11 07:52:36;;;;;;;138.23;88.00;;;9.60;99.90;;;;;;5063292;28;20082;-71
2021/11/11 07:55:03;;;;;;;131.75;82.60;;;9.50;99.90;;;;;;5062831;28;20045;-71
2021/11/11 07:57:31;;;;;;;118.57;81.80;;;9.50;99.90;;;;;;5048641;28;20064;-71
2021/11/11 07:59:58;;;;;;;117.07;75.05;;;9.50;99.90;;;;;;5057539;28;20495;-71
2021/11/11 08:02:25;;;;;;;126.32;76.47;;;9.50;99.90;;;;;;5060987;28;20056;-71
2021/11/11 08:04:52;;;;;;;106.60;72.32;;;9.50;99.90;;;;;;5043573;28;20044;-71
2021/11/11 08:07:18;;;;;;;115.82;73.03;;;9.50;99.90;;;;;;5042055;28;20045;-70
2021/11/11 08:09:45;;;;;;;108.97;70.15;;;9.50;99.90;;;;;;5057203;28;20048;-71
2021/11/11 08:12:11;;;;;;;102.90;69.07;;;9.50;99.90;;;;;;5060803;28;20059;-70
2021/11/11 08:14:37;;;;;;;112.93;73.32;;;9.50;99.90;;;;;;5047323;28;20068;-71
2021/11/11 08:17:03;;;;;;;99.97;69.13;;;9.50;99.90;;;;;;5048091;28;20063;-71
2021/11/11 08:19:29;;;;;;;116.68;71.28;;;9.50;99.90;;;;;;5064924;28;20399;-70
2021/11/11 08:21:55;;;;;;;103.68;69.03;;;9.50;99.90;;;;;;5054601;28;20695;-70
2021/11/11 08:24:21;;;;;;;96.82;64.18;;;9.50;99.90;;;;;;5048392;28;20047;-71
2021/11/11 08:26:47;;;;;;;116.38;69.63;;;9.50;99.90;;;;;;5029491;28;20453;-70
2021/11/11 08:29:12;;;;;;;114.30;71.30;;;9.50;99.90;;;;;;5049344;28;20480;-69
2021/11/11 08:31:38;;;;;;;121.25;74.05;;;9.60;99.90;;;;;;5065713;28;21224;-69
2021/11/11 08:34:04;;;;;;;111.90;70.97;;;9.60;99.90;;;;;;5063514;28;20040;-70
2021/11/11 08:36:30;;;;;;;146.45;78.93;;;9.60;99.90;;;;;;5037479;28;20535;-72
2021/11/11 08:38:59;;;;;;;130.68;77.47;;;9.60;99.90;;;;;;5065342;28;20036;-70
2021/11/11 08:41:27;;;;;;;129.45;77.55;;;9.50;99.90;;;;;;5045011;28;20586;-70
2021/11/11 08:43:54;;;;;;;130.73;78.88;;;9.50;99.90;;;;;;5065954;28;20116;-70
2021/11/11 08:46:19;;;;;;;142.65;79.65;;;9.60;99.90;;;;;;5028507;28;20033;-69
2021/11/11 08:48:46;;;;;;;121.03;74.65;;;9.50;99.90;;;;;;5057046;28;20040;-70
2021/11/11 08:51:12;;;;;;;147.07;81.30;;;9.50;99.90;;;;;;5062176;28;20444;-70
2021/11/11 08:53:38;;;;;;;119.03;75.07;;;9.50;99.90;;;;;;5056367;28;20507;-70
2021/11/11 08:56:04;;;;;;;168.02;85.78;;;9.60;99.90;;;;;;5054590;28;20048;-72
2021/11/11 08:58:31;;;;;;;149.68;80.63;;;9.60;99.90;;;;;;5044469;28;20060;-69
2021/11/11 09:01:02;;;;;;;131.50;78.75;;;9.60;99.90;;;;;;5057061;28;20147;-69
2021/11/11 09:03:31;;;;;;;162.93;84.45;;;9.60;99.90;;;;;;5043631;28;20107;-70
2021/11/11 09:05:56;;;;;;;160.80;82.85;;;9.60;99.90;;;;;;5031306;28;20044;-70
2021/11/11 09:08:22;;;;;;;153.32;81.68;;;9.70;99.90;;;;;;5058414;28;20892;-70
2021/11/11 09:10:49;;;;;;;154.05;81.57;;;9.70;99.90;;;;;;5039513;28;20284;-70
2021/11/11 09:13:15;;;;;;;125.45;74.10;;;9.70;99.90;;;;;;5055184;28;20115;-70
2021/11/11 09:15:41;;;;;;;164.88;84.20;;;9.70;99.90;;;;;;5051456;28;20132;-70
2021/11/11 09:18:09;;;;;;;153.68;80.30;;;9.80;99.90;;;;;;5027549;28;20044;-70
2021/11/11 09:20:38;;;;;;;155.40;79.43;;;9.80;99.90;;;;;;5047448;28;20040;-69
2021/11/11 09:23:05;;;;;;;141.27;80.15;;;9.80;99.90;;;;;;5058575;28;20056;-70
2021/11/11 09:25:32;;;;;;;126.20;74.47;;;9.80;99.90;;;;;;5043870;28;20479;-70
2021/11/11 09:27:59;;;;;;;134.10;78.07;;;9.80;99.90;;;;;;5055717;28;20040;-70
2021/11/11 09:30:30;;;;;;;114.13;72.43;;;9.80;99.90;;;;;;5045324;28;20124;-69
2021/11/11 09:32:56;;;;;;;138.25;76.07;;;9.80;99.90;;;;;;5052517;28;20102;-70
2021/11/11 09:35:22;;;;;;;127.88;74.88;;;9.90;99.90;;;;;;5072698;28;20042;-70
2021/11/11 09:37:49;;;;;;;133.10;75.32;;;9.90;99.90;;;;;;5056018;28;20083;-72
2021/11/11 09:40:19;;;;;;;119.00;72.55;;;9.90;99.90;;;;;;5062625;28;20586;-72
2021/11/11 09:42:46;;;;;;;;;;;9.90;99.90;;;;;;5052592;28;20049;-69
2021/11/11 09:45:15;;;;;;;150.60;77.82;;;9.90;99.90;;;;;;5056858;28;19928;-72
2021/11/11 09:47:45;;;;;;;141.65;79.07;;;9.90;99.90;;;;;;5037563;28;20112;-71
2021/11/11 09:50:15;;;;;;;159.02;81.32;;;10.00;99.90;;;;;;5057212;28;20049;-72
2021/11/11 09:52:42;;;;;;;141.15;75.85;;;10.00;99.90;;;;;;5061424;28;20456;-72
2021/11/11 10:00:40;;;;;;;138.75;76.50;;;10.10;99.90;;;;;;5058125;28;20117;-70
2021/11/11 10:03:06;;;;;;;123.00;72.32;;;10.10;99.90;;;;;;5046112;28;20056;-70
2021/11/11 10:05:33;;;;;;;118.80;70.40;;;10.10;99.90;;;;;;5045589;28;20048;-71
2021/11/11 10:08:02;;;;;;;121.90;70.47;;;10.20;99.90;;;;;;5063242;28;20507;-71
2021/11/11 10:10:37;;;;;;;101.10;64.82;;;10.20;99.90;;;;;;5063658;28;20567;-70
2021/11/11 10:13:17;;;;;;;116.40;68.75;;;10.20;99.90;;;;;;5057298;28;20057;-70
2021/11/11 10:16:03;;;;;;;106.72;66.78;;;10.20;99.90;;;;;;5054745;28;20063;-73
2021/11/11 10:19:01;;;;;;;116.00;68.25;;;10.30;99.90;;;;;;5046494;28;20067;-73
2021/11/11 10:21:51;;;;;;;111.53;67.90;;;10.30;99.90;;;;;;5060746;28;20671;-69
2021/11/11 10:24:36;;;;;;;130.27;73.72;;;10.30;99.90;;;;;;5046251;28;20053;-69
2021/11/11 10:27:30;;;;;;;131.85;72.47;;;10.30;99.90;;;;;;5061299;28;20593;-72
2021/11/11 10:30:05;;;;;;;113.63;70.07;;;10.30;99.90;;;;;;5062487;28;20055;-70
2021/11/11 10:32:35;;;;;;;110.18;67.28;;;10.40;99.90;;;;;;5062431;28;20056;-69
2021/11/11 10:35:05;;;;;;;119.13;69.88;;;10.40;99.90;;;;;;5065814;28;20036;-70
2021/11/11 10:37:38;;;;;;;115.50;68.78;;;10.40;99.90;;;;;;5047812;28;20062;-70
2021/11/11 10:40:33;;;;;;;112.22;70.07;;;10.40;99.90;;;;;;5064415;28;20048;-70
2021/11/11 10:43:06;;;;;;;109.70;65.50;;;10.50;99.90;;;;;;5058026;28;20086;-69
2021/11/11 10:45:35;;;;;;;123.95;71.15;;;10.50;99.90;;;;;;5045710;28;20045;-69
2021/11/11 10:48:09;;;;;;;122.40;69.20;;;10.50;99.90;;;;;;5063871;28;20054;-69
2021/11/11 10:50:41;;;;;;;125.50;71.78;;;10.50;99.90;;;;;;5046347;28;20079;-69
2021/11/11 10:53:10;;;;;;;116.85;68.88;;;10.50;99.90;;;;;;5052244;28;20372;-69
2021/11/11 10:55:39;;;;;;;123.55;67.97;;;10.50;99.90;;;;;;5059663;28;20040;-69
2021/11/11 10:58:10;;;;;;;126.47;71.90;;;10.50;99.90;;;;;;5065606;28;20495;-70
2021/11/11 11:00:41;;;;;;;;;;;10.50;99.90;;;;;;5046770;28;20040;-70
2021/11/11 11:03:13;;;;;;;126.55;73.05;;;10.50;99.90;;;;;;5061679;28;19931;-70
2021/11/11 11:05:54;;;;;;;148.95;76.90;;;10.50;99.90;;;;;;5054073;28;20052;-69
2021/11/11 11:08:29;;;;;;;143.45;77.57;;;10.50;99.90;;;;;;5051436;28;20083;-72
2021/11/11 11:11:04;;;;;;;144.88;79.45;;;10.50;99.90;;;;;;5056360;28;20094;-69
2021/11/11 11:13:39;;;;;;;126.80;77.15;;;10.50;99.90;;;;;;5047956;28;20079;-70
2021/11/11 11:16:08;;;;;;;136.60;74.32;;;10.60;99.90;;;;;;5055315;28;20132;-69
2021/11/11 11:18:37;;;;;;;139.18;76.72;;;10.60;99.90;;;;;;5046473;28;20096;-70
2021/11/11 11:21:08;;;;;;;147.77;75.25;;;10.60;99.90;;;;;;5045439;28;20052;-70
2021/11/11 11:23:37;;;;;;;151.32;78.38;;;10.60;99.90;;;;;;5053186;28;20045;-70
2021/11/11 11:26:08;;;;;;;140.10;76.88;;;10.60;99.90;;;;;;5046975;28;20136;-70
2021/11/11 11:28:42;;;;;;;145.85;79.88;;;10.60;99.90;;;;;;5043527;28;20044;-70
2021/11/11 11:31:09;;;;;;;159.88;83.80;;;10.70;99.90;;;;;;5045705;28;20056;-72
2021/11/11 11:33:43;;;;;;;160.43;83.40;;;10.60;99.90;;;;;;5053754;28;20064;-71
2021/11/11 11:36:15;;;;;;;162.93;83.70;;;10.70;99.90;;;;;;5044425;28;20048;-71
2021/11/11 11:38:51;;;;;;;157.95;83.78;;;10.70;99.90;;;;;;5053968;28;20492;-72
2021/11/11 11:41:43;;;;;;;153.50;83.88;;;10.70;99.90;;;;;;5048304;28;20128;-72
2021/11/11 11:44:31;;;;;;;173.40;88.70;;;10.70;99.90;;;;;;5052502;28;20060;-72
2021/11/11 11:50:29;;;;;;;172.20;85.80;;;10.70;99.90;;;;;;5023119;28;20472;-71
2021/11/11 11:53:01;;;;;;;152.35;84.80;;;10.70;99.90;;;;;;5029249;28;20060;-71
2021/11/11 11:58:42;;;;;;;178.73;89.55;;;10.60;99.90;;;;;;5056423;28;20082;-71
2021/11/11 12:03:32;;;;;;;175.57;91.60;;;10.60;99.90;;;;;;5047101;28;20087;-71
2021/11/11 12:09:21;;;;;;;167.85;90.80;;;10.60;99.90;;;;;;5046534;28;20050;-71
2021/11/11 12:15:15;;;;;;;187.57;97.57;;;10.60;99.90;;;;;;5064139;28;20059;-72
2021/11/11 12:18:24;;;;;;;181.02;98.38;;;10.70;99.90;;;;;;5060010;28;20155;-71
2021/11/11 12:40:32;;;;;;;165.18;94.70;;;10.80;99.90;;;;;;5047547;28;20110;-70
2021/11/11 12:43:15;;;;;;;170.98;96.60;;;10.80;99.90;;;;;;5051309;28;20052;-71
2021/11/11 12:45:41;;;;;;;184.52;99.97;;;10.80;99.90;;;;;;5049832;28;20057;-69
2021/11/11 12:48:11;;;;;;;176.98;96.93;;;10.80;99.90;;;;;;5037260;28;20044;-70
2021/11/11 12:50:44;;;;;;;171.88;97.32;;;10.80;99.90;;;;;;5067766;28;20056;-70
2021/11/11 12:53:13;;;;;;;185.07;100.78;;;10.90;99.90;;;;;;5051980;28;20083;-70
2021/11/11 12:55:47;;;;;;;167.68;95.28;;;10.90;99.90;;;;;;5056294;28;20511;-69
2021/11/11 12:58:31;;;;;;;158.10;92.00;;;10.90;99.90;;;;;;5049357;28;20400;-70
2021/11/11 13:01:16;;;;;;;141.40;88.10;;;10.90;99.90;;;;;;5063954;28;20055;-70
2021/11/11 13:04:01;;;;;;;151.85;91.28;;;10.90;99.90;;;;;;5055756;28;20114;-70
2021/11/11 13:06:37;;;;;;;160.57;93.10;;;10.90;99.90;;;;;;5058724;28;20040;-70
2021/11/11 13:09:19;;;;;;;145.68;86.50;;;10.90;99.90;;;;;;5048192;28;20057;-69
2021/11/11 13:11:48;;;;;;;154.80;88.03;;;10.90;99.90;;;;;;5051776;28;20124;-70
2021/11/11 13:14:20;;;;;;;138.00;85.82;;;10.90;99.90;;;;;;5066676;28;20051;-70
2021/11/11 13:16:54;;;;;;;154.30;87.88;;;10.80;99.90;;;;;;5047551;28;20103;-70
2021/11/11 13:19:45;;;;;;;151.55;88.85;;;10.80;99.90;;;;;;5048512;28;20053;-70
2021/11/11 13:22:40;;;;;;;143.57;84.60;;;10.80;99.90;;;;;;5046780;28;20053;-70
2021/11/11 15:19:05;;;;;;;125.68;70.68;;;11.00;99.90;;;;;;5051115;28;20056;-73
2021/11/11 16:01:21;;;;;;;136.65;72.05;;;10.90;99.90;;;;;;5052480;28;20056;-73
2021/11/11 16:27:45;;;;;;;128.80;69.93;;;10.80;99.90;;;;;;5047149;28;20049;-73
2021/11/11 16:30:18;;;;;;;121.50;68.75;;;10.80;99.90;;;;;;5053192;28;20589;-73
2021/11/11 16:32:44;;;;;;;117.40;65.78;;;10.70;99.90;;;;;;5055075;28;20449;-73
2021/11/11 16:35:16;;;;;;;134.15;73.00;;;10.70;99.90;;;;;;5048898;28;20123;-73
2021/11/11 16:37:43;;;;;;;119.93;68.00;;;10.70;99.90;;;;;;5055095;28;20500;-73
2021/11/11 16:40:12;;;;;;;111.22;65.30;;;10.80;99.90;;;;;;5033372;28;20492;-73